sensor_id;sensor_type;location;lat;lon;timestamp;P1;durP1;ratioP1;P2;durP2;ratioP2
10751;SDS011;74458;51.060;4.228;2023-12-07T00:00:42;106.97;;;26.42;;
10751;SDS011;74458;51.060;4.228;2023-12-07T00:03:08;96.90;;;24.25;;
10751;SDS011;74458;51.060;4.228;2023-12-07T00:05:35;97.05;;;24.90;;
10751;SDS011;74458;51.060;4.228;2023-12-07T00:08:01;121.72;;;28.45;;
10751;SDS011;74458;51.060;4.228;2023-12-07T00:10:28;118.28;;;28.90;;
10751;SDS011;74458;51.060;4.228;2023-12-07T00:12:54;120.75;;;28.60;;
10751;SDS011;74458;51.060;4.228;2023-12-07T00:15:21;98.40;;;26.48;;
10751;SDS011;74458;51.060;4.228;2023-12-07T00:17:47;139.60;;;30.52;;
10751;SDS011;74458;51.060;4.228;2023-12-07T00:20:13;92.03;;;27.33;;
10751;SDS011;74458;51.060;4.228;2023-12-07T00:22:40;106.78;;;27.33;;
10751;SDS011;74458;51.060;4.228;2023-12-07T00:25:06;119.65;;;29.10;;
10751;SDS011;74458;51.060;4.228;2023-12-07T00:27:33;131.85;;;32.05;;
10751;SDS011;74458;51.060;4.228;2023-12-07T00:29:59;153.07;;;31.65;;
10751;SDS011;74458;51.060;4.228;2023-12-07T00:32:26;124.47;;;31.25;;
10751;SDS011;74458;51.060;4.228;2023-12-07T00:34:52;112.20;;;32.13;;
10751;SDS011;74458;51.060;4.228;2023-12-07T00:37:19;98.57;;;29.00;;
10751;SDS011;74458;51.060;4.228;2023-12-07T00:39:45;101.38;;;34.30;;
10751;SDS011;74458;51.060;4.228;2023-12-07T00:42:11;102.90;;;30.10;;
10751;SDS011;74458;51.060;4.228;2023-12-07T00:44:39;98.07;;;30.20;;
10751;SDS011;74458;51.060;4.228;2023-12-07T00:47:05;95.65;;;32.75;;
10751;SDS011;74458;51.060;4.228;2023-12-07T00:49:32;93.25;;;32.08;;
10751;SDS011;74458;51.060;4.228;2023-12-07T00:51:58;100.53;;;31.62;;
10751;SDS011;74458;51.060;4.228;2023-12-07T00:54:25;103.60;;;31.08;;
10751;SDS011;74458;51.060;4.228;2023-12-07T00:56:51;100.55;;;32.30;;
10751;SDS011;74458;51.060;4.228;2023-12-07T00:59:17;90.90;;;31.05;;
10751;SDS011;74458;51.060;4.228;2023-12-07T01:01:44;114.90;;;34.70;;
10751;SDS011;74458;51.060;4.228;2023-12-07T01:04:10;103.07;;;31.42;;
10751;SDS011;74458;51.060;4.228;2023-12-07T01:06:37;109.35;;;32.85;;
10751;SDS011;74458;51.060;4.228;2023-12-07T01:09:03;104.18;;;32.88;;
10751;SDS011;74458;51.060;4.228;2023-12-07T01:11:30;110.18;;;35.88;;
10751;SDS011;74458;51.060;4.228;2023-12-07T01:13:56;107.65;;;32.60;;
10751;SDS011;74458;51.060;4.228;2023-12-07T01:16:22;100.47;;;35.60;;
10751;SDS011;74458;51.060;4.228;2023-12-07T01:18:49;104.00;;;32.33;;
10751;SDS011;74458;51.060;4.228;2023-12-07T01:21:15;98.97;;;30.42;;
10751;SDS011;74458;51.060;4.228;2023-12-07T01:23:42;94.22;;;30.80;;
10751;SDS011;74458;51.060;4.228;2023-12-07T01:26:08;83.12;;;29.52;;
10751;SDS011;74458;51.060;4.228;2023-12-07T01:28:35;89.03;;;28.52;;
10751;SDS011;74458;51.060;4.228;2023-12-07T01:31:01;85.82;;;28.98;;
10751;SDS011;74458;51.060;4.228;2023-12-07T01:33:27;81.37;;;27.15;;
10751;SDS011;74458;51.060;4.228;2023-12-07T01:35:54;81.47;;;28.30;;
10751;SDS011;74458;51.060;4.228;2023-12-07T01:38:20;71.43;;;27.42;;
10751;SDS011;74458;51.060;4.228;2023-12-07T01:40:47;74.30;;;25.33;;
10751;SDS011;74458;51.060;4.228;2023-12-07T01:43:13;74.15;;;28.08;;
10751;SDS011;74458;51.060;4.228;2023-12-07T01:45:39;82.57;;;29.35;;
10751;SDS011;74458;51.060;4.228;2023-12-07T01:48:06;70.70;;;25.92;;
10751;SDS011;74458;51.060;4.228;2023-12-07T01:50:32;71.87;;;25.98;;
10751;SDS011;74458;51.060;4.228;2023-12-07T01:53:01;69.12;;;24.20;;
10751;SDS011;74458;51.060;4.228;2023-12-07T01:55:26;71.00;;;25.60;;
10751;SDS011;74458;51.060;4.228;2023-12-07T01:57:53;70.82;;;24.48;;
10751;SDS011;74458;51.060;4.228;2023-12-07T02:00:19;69.95;;;25.90;;
10751;SDS011;74458;51.060;4.228;2023-12-07T02:02:52;63.90;;;24.35;;
10751;SDS011;74458;51.060;4.228;2023-12-07T02:05:18;71.18;;;24.08;;
10751;SDS011;74458;51.060;4.228;2023-12-07T02:07:44;67.37;;;25.55;;
10751;SDS011;74458;51.060;4.228;2023-12-07T02:10:11;71.53;;;24.85;;
10751;SDS011;74458;51.060;4.228;2023-12-07T02:12:37;56.42;;;23.83;;
10751;SDS011;74458;51.060;4.228;2023-12-07T02:15:05;50.85;;;24.52;;
10751;SDS011;74458;51.060;4.228;2023-12-07T02:17:35;58.20;;;24.65;;
10751;SDS011;74458;51.060;4.228;2023-12-07T02:20:03;51.13;;;22.60;;
10751;SDS011;74458;51.060;4.228;2023-12-07T02:22:28;53.53;;;21.90;;
10751;SDS011;74458;51.060;4.228;2023-12-07T02:24:59;49.97;;;21.08;;
10751;SDS011;74458;51.060;4.228;2023-12-07T02:27:32;49.95;;;22.75;;
10751;SDS011;74458;51.060;4.228;2023-12-07T02:29:46;49.53;;;22.05;;
10751;SDS011;74458;51.060;4.228;2023-12-07T02:32:13;48.67;;;23.73;;
10751;SDS011;74458;51.060;4.228;2023-12-07T02:34:39;52.50;;;22.13;;
10751;SDS011;74458;51.060;4.228;2023-12-07T02:37:06;51.92;;;21.92;;
10751;SDS011;74458;51.060;4.228;2023-12-07T02:39:32;49.53;;;23.12;;
10751;SDS011;74458;51.060;4.228;2023-12-07T02:41:59;52.95;;;24.83;;
10751;SDS011;74458;51.060;4.228;2023-12-07T02:44:25;47.72;;;22.50;;
10751;SDS011;74458;51.060;4.228;2023-12-07T02:46:51;43.28;;;21.37;;
10751;SDS011;74458;51.060;4.228;2023-12-07T02:49:18;47.10;;;22.13;;
10751;SDS011;74458;51.060;4.228;2023-12-07T02:51:44;45.78;;;21.65;;
10751;SDS011;74458;51.060;4.228;2023-12-07T02:54:11;48.15;;;21.08;;
10751;SDS011;74458;51.060;4.228;2023-12-07T02:56:37;43.80;;;21.83;;
10751;SDS011;74458;51.060;4.228;2023-12-07T02:59:04;44.50;;;21.35;;
10751;SDS011;74458;51.060;4.228;2023-12-07T03:01:30;47.58;;;22.62;;
10751;SDS011;74458;51.060;4.228;2023-12-07T03:03:56;48.78;;;21.42;;
10751;SDS011;74458;51.060;4.228;2023-12-07T03:06:23;49.97;;;23.67;;
10751;SDS011;74458;51.060;4.228;2023-12-07T03:08:49;49.40;;;23.15;;
10751;SDS011;74458;51.060;4.228;2023-12-07T03:11:16;46.88;;;22.35;;
10751;SDS011;74458;51.060;4.228;2023-12-07T03:13:42;47.53;;;21.17;;
10751;SDS011;74458;51.060;4.228;2023-12-07T03:16:09;45.22;;;21.85;;
10751;SDS011;74458;51.060;4.228;2023-12-07T03:18:36;43.85;;;19.98;;
10751;SDS011;74458;51.060;4.228;2023-12-07T03:21:02;44.92;;;21.50;;
10751;SDS011;74458;51.060;4.228;2023-12-07T03:23:28;40.80;;;19.80;;
10751;SDS011;74458;51.060;4.228;2023-12-07T03:25:54;42.28;;;18.98;;
10751;SDS011;74458;51.060;4.228;2023-12-07T03:28:21;45.47;;;19.60;;
10751;SDS011;74458;51.060;4.228;2023-12-07T03:30:47;41.88;;;18.95;;
10751;SDS011;74458;51.060;4.228;2023-12-07T03:33:14;47.60;;;19.83;;
10751;SDS011;74458;51.060;4.228;2023-12-07T03:35:40;42.97;;;19.17;;
10751;SDS011;74458;51.060;4.228;2023-12-07T03:38:07;37.53;;;18.48;;
10751;SDS011;74458;51.060;4.228;2023-12-07T03:40:33;41.00;;;19.45;;
10751;SDS011;74458;51.060;4.228;2023-12-07T03:42:59;42.55;;;18.75;;
10751;SDS011;74458;51.060;4.228;2023-12-07T03:45:26;39.20;;;18.60;;
10751;SDS011;74458;51.060;4.228;2023-12-07T03:47:52;44.78;;;20.05;;
10751;SDS011;74458;51.060;4.228;2023-12-07T03:50:19;36.42;;;18.73;;
10751;SDS011;74458;51.060;4.228;2023-12-07T03:52:45;48.15;;;19.33;;
10751;SDS011;74458;51.060;4.228;2023-12-07T03:55:12;40.05;;;18.85;;
10751;SDS011;74458;51.060;4.228;2023-12-07T03:57:38;38.63;;;18.30;;
10751;SDS011;74458;51.060;4.228;2023-12-07T04:00:05;44.78;;;20.85;;
10751;SDS011;74458;51.060;4.228;2023-12-07T04:02:33;40.55;;;18.45;;
10751;SDS011;74458;51.060;4.228;2023-12-07T04:04:59;40.00;;;17.77;;
10751;SDS011;74458;51.060;4.228;2023-12-07T04:07:26;41.05;;;17.62;;
10751;SDS011;74458;51.060;4.228;2023-12-07T04:09:52;44.22;;;19.40;;
10751;SDS011;74458;51.060;4.228;2023-12-07T04:12:19;44.30;;;18.02;;
10751;SDS011;74458;51.060;4.228;2023-12-07T04:14:45;37.92;;;19.10;;
10751;SDS011;74458;51.060;4.228;2023-12-07T04:17:12;43.20;;;19.17;;
10751;SDS011;74458;51.060;4.228;2023-12-07T04:19:38;40.72;;;19.08;;
10751;SDS011;74458;51.060;4.228;2023-12-07T04:22:04;41.92;;;19.75;;
10751;SDS011;74458;51.060;4.228;2023-12-07T04:24:31;44.50;;;19.27;;
10751;SDS011;74458;51.060;4.228;2023-12-07T04:26:57;35.85;;;18.77;;
10751;SDS011;74458;51.060;4.228;2023-12-07T04:29:24;41.67;;;18.25;;
10751;SDS011;74458;51.060;4.228;2023-12-07T04:31:50;39.55;;;18.55;;
10751;SDS011;74458;51.060;4.228;2023-12-07T04:34:17;40.55;;;18.67;;
10751;SDS011;74458;51.060;4.228;2023-12-07T04:36:43;38.75;;;19.30;;
10751;SDS011;74458;51.060;4.228;2023-12-07T04:39:09;35.53;;;18.42;;
10751;SDS011;74458;51.060;4.228;2023-12-07T04:41:36;31.08;;;17.52;;
10751;SDS011;74458;51.060;4.228;2023-12-07T04:44:02;34.35;;;17.75;;
10751;SDS011;74458;51.060;4.228;2023-12-07T04:46:29;31.45;;;17.60;;
10751;SDS011;74458;51.060;4.228;2023-12-07T04:48:55;29.33;;;16.17;;
10751;SDS011;74458;51.060;4.228;2023-12-07T04:51:22;33.33;;;17.42;;
10751;SDS011;74458;51.060;4.228;2023-12-07T04:53:48;36.80;;;18.87;;
10751;SDS011;74458;51.060;4.228;2023-12-07T04:56:14;32.38;;;18.17;;
10751;SDS011;74458;51.060;4.228;2023-12-07T04:58:41;33.90;;;17.52;;
10751;SDS011;74458;51.060;4.228;2023-12-07T05:01:07;33.42;;;17.65;;
10751;SDS011;74458;51.060;4.228;2023-12-07T05:03:45;31.42;;;17.83;;
10751;SDS011;74458;51.060;4.228;2023-12-07T05:06:11;32.45;;;16.60;;
10751;SDS011;74458;51.060;4.228;2023-12-07T05:08:38;35.65;;;18.15;;
10751;SDS011;74458;51.060;4.228;2023-12-07T05:11:04;27.48;;;17.02;;
10751;SDS011;74458;51.060;4.228;2023-12-07T05:13:30;29.08;;;18.08;;
10751;SDS011;74458;51.060;4.228;2023-12-07T05:15:57;33.92;;;17.62;;
10751;SDS011;74458;51.060;4.228;2023-12-07T05:18:23;31.65;;;17.12;;
10751;SDS011;74458;51.060;4.228;2023-12-07T05:20:50;33.00;;;17.25;;
10751;SDS011;74458;51.060;4.228;2023-12-07T05:23:16;31.60;;;17.50;;
10751;SDS011;74458;51.060;4.228;2023-12-07T05:25:43;29.40;;;15.82;;
10751;SDS011;74458;51.060;4.228;2023-12-07T05:28:09;32.17;;;18.73;;
10751;SDS011;74458;51.060;4.228;2023-12-07T05:30:36;34.47;;;17.52;;
10751;SDS011;74458;51.060;4.228;2023-12-07T05:33:02;31.77;;;18.40;;
10751;SDS011;74458;51.060;4.228;2023-12-07T05:35:28;28.52;;;17.65;;
10751;SDS011;74458;51.060;4.228;2023-12-07T05:37:55;40.80;;;20.20;;
10751;SDS011;74458;51.060;4.228;2023-12-07T05:40:21;32.13;;;16.45;;
10751;SDS011;74458;51.060;4.228;2023-12-07T05:42:48;32.58;;;18.70;;
10751;SDS011;74458;51.060;4.228;2023-12-07T05:45:14;25.50;;;17.62;;
10751;SDS011;74458;51.060;4.228;2023-12-07T05:47:40;28.50;;;18.75;;
10751;SDS011;74458;51.060;4.228;2023-12-07T05:50:07;29.42;;;17.65;;
10751;SDS011;74458;51.060;4.228;2023-12-07T05:52:34;28.87;;;17.17;;
10751;SDS011;74458;51.060;4.228;2023-12-07T05:55:00;31.40;;;16.73;;
10751;SDS011;74458;51.060;4.228;2023-12-07T05:57:26;27.23;;;18.20;;
10751;SDS011;74458;51.060;4.228;2023-12-07T05:59:53;28.10;;;17.73;;
10751;SDS011;74458;51.060;4.228;2023-12-07T06:02:19;26.65;;;16.25;;
10751;SDS011;74458;51.060;4.228;2023-12-07T06:04:49;26.87;;;16.87;;
10751;SDS011;74458;51.060;4.228;2023-12-07T06:07:16;28.10;;;16.42;;
10751;SDS011;74458;51.060;4.228;2023-12-07T06:09:42;31.00;;;17.17;;
10751;SDS011;74458;51.060;4.228;2023-12-07T06:12:08;31.42;;;17.10;;
10751;SDS011;74458;51.060;4.228;2023-12-07T06:14:35;26.75;;;17.30;;
10751;SDS011;74458;51.060;4.228;2023-12-07T06:17:01;32.55;;;17.80;;
10751;SDS011;74458;51.060;4.228;2023-12-07T06:19:28;35.33;;;18.10;;
10751;SDS011;74458;51.060;4.228;2023-12-07T06:21:55;30.20;;;17.90;;
10751;SDS011;74458;51.060;4.228;2023-12-07T06:24:21;28.10;;;17.70;;
10751;SDS011;74458;51.060;4.228;2023-12-07T06:26:47;30.20;;;17.95;;
10751;SDS011;74458;51.060;4.228;2023-12-07T06:29:13;28.67;;;17.70;;
10751;SDS011;74458;51.060;4.228;2023-12-07T06:31:43;31.80;;;19.17;;
10751;SDS011;74458;51.060;4.228;2023-12-07T06:34:09;31.25;;;16.62;;
10751;SDS011;74458;51.060;4.228;2023-12-07T06:36:36;30.67;;;17.30;;
10751;SDS011;74458;51.060;4.228;2023-12-07T06:39:02;28.80;;;17.65;;
10751;SDS011;74458;51.060;4.228;2023-12-07T06:41:29;30.27;;;18.27;;
10751;SDS011;74458;51.060;4.228;2023-12-07T06:43:56;28.98;;;18.17;;
10751;SDS011;74458;51.060;4.228;2023-12-07T06:46:22;26.27;;;18.25;;
10751;SDS011;74458;51.060;4.228;2023-12-07T06:48:49;29.55;;;17.92;;
10751;SDS011;74458;51.060;4.228;2023-12-07T06:51:15;25.85;;;15.77;;
10751;SDS011;74458;51.060;4.228;2023-12-07T06:53:45;23.75;;;14.93;;
10751;SDS011;74458;51.060;4.228;2023-12-07T06:56:11;29.65;;;17.00;;
10751;SDS011;74458;51.060;4.228;2023-12-07T06:58:41;28.65;;;16.90;;
10751;SDS011;74458;51.060;4.228;2023-12-07T07:01:07;39.42;;;19.75;;
10751;SDS011;74458;51.060;4.228;2023-12-07T07:03:34;24.70;;;17.20;;
10751;SDS011;74458;51.060;4.228;2023-12-07T07:06:00;26.08;;;15.88;;
10751;SDS011;74458;51.060;4.228;2023-12-07T07:08:27;26.50;;;15.75;;
10751;SDS011;74458;51.060;4.228;2023-12-07T07:10:53;28.38;;;17.12;;
10751;SDS011;74458;51.060;4.228;2023-12-07T07:13:20;26.83;;;15.80;;
10751;SDS011;74458;51.060;4.228;2023-12-07T07:15:46;26.98;;;14.73;;
10751;SDS011;74458;51.060;4.228;2023-12-07T07:18:12;28.95;;;16.67;;
10751;SDS011;74458;51.060;4.228;2023-12-07T07:20:39;27.85;;;16.48;;
10751;SDS011;74458;51.060;4.228;2023-12-07T07:23:05;29.27;;;16.48;;
10751;SDS011;74458;51.060;4.228;2023-12-07T07:25:32;25.33;;;16.60;;
10751;SDS011;74458;51.060;4.228;2023-12-07T07:27:58;27.02;;;16.15;;
10751;SDS011;74458;51.060;4.228;2023-12-07T07:30:25;27.37;;;17.37;;
10751;SDS011;74458;51.060;4.228;2023-12-07T07:32:51;26.20;;;16.80;;
10751;SDS011;74458;51.060;4.228;2023-12-07T07:35:17;30.45;;;17.10;;
10751;SDS011;74458;51.060;4.228;2023-12-07T07:37:44;24.02;;;16.55;;
10751;SDS011;74458;51.060;4.228;2023-12-07T07:40:11;24.75;;;15.88;;
10751;SDS011;74458;51.060;4.228;2023-12-07T07:42:38;26.65;;;16.87;;
10751;SDS011;74458;51.060;4.228;2023-12-07T07:45:04;30.58;;;16.52;;
10751;SDS011;74458;51.060;4.228;2023-12-07T07:47:30;34.33;;;17.42;;
10751;SDS011;74458;51.060;4.228;2023-12-07T07:49:57;26.85;;;16.80;;
10751;SDS011;74458;51.060;4.228;2023-12-07T07:52:23;30.02;;;18.08;;
10751;SDS011;74458;51.060;4.228;2023-12-07T07:54:50;32.75;;;16.83;;
10751;SDS011;74458;51.060;4.228;2023-12-07T07:57:16;27.85;;;17.10;;
10751;SDS011;74458;51.060;4.228;2023-12-07T07:59:43;31.00;;;17.55;;
10751;SDS011;74458;51.060;4.228;2023-12-07T08:02:09;32.15;;;17.80;;
10751;SDS011;74458;51.060;4.228;2023-12-07T08:04:35;32.72;;;19.10;;
10751;SDS011;74458;51.060;4.228;2023-12-07T08:07:02;27.55;;;18.75;;
10751;SDS011;74458;51.060;4.228;2023-12-07T08:09:28;29.10;;;17.92;;
10751;SDS011;74458;51.060;4.228;2023-12-07T08:11:55;34.53;;;17.52;;
10751;SDS011;74458;51.060;4.228;2023-12-07T08:14:21;28.65;;;18.10;;
10751;SDS011;74458;51.060;4.228;2023-12-07T08:16:48;28.35;;;16.52;;
10751;SDS011;74458;51.060;4.228;2023-12-07T08:19:14;33.85;;;17.80;;
10751;SDS011;74458;51.060;4.228;2023-12-07T08:21:41;26.85;;;16.42;;
10751;SDS011;74458;51.060;4.228;2023-12-07T08:24:07;28.87;;;17.30;;
10751;SDS011;74458;51.060;4.228;2023-12-07T08:26:33;30.20;;;17.60;;
10751;SDS011;74458;51.060;4.228;2023-12-07T08:29:00;27.87;;;16.80;;
10751;SDS011;74458;51.060;4.228;2023-12-07T08:31:26;28.95;;;17.75;;
10751;SDS011;74458;51.060;4.228;2023-12-07T08:33:53;25.37;;;16.55;;
10751;SDS011;74458;51.060;4.228;2023-12-07T08:36:19;28.08;;;17.42;;
10751;SDS011;74458;51.060;4.228;2023-12-07T08:38:46;27.08;;;18.17;;
10751;SDS011;74458;51.060;4.228;2023-12-07T08:41:12;23.90;;;15.82;;
10751;SDS011;74458;51.060;4.228;2023-12-07T08:43:38;24.08;;;15.85;;
10751;SDS011;74458;51.060;4.228;2023-12-07T08:46:05;26.27;;;18.00;;
10751;SDS011;74458;51.060;4.228;2023-12-07T08:48:31;24.35;;;17.25;;
10751;SDS011;74458;51.060;4.228;2023-12-07T08:50:58;32.70;;;17.33;;
10751;SDS011;74458;51.060;4.228;2023-12-07T08:53:24;27.77;;;17.83;;
10751;SDS011;74458;51.060;4.228;2023-12-07T08:55:51;29.17;;;16.77;;
10751;SDS011;74458;51.060;4.228;2023-12-07T08:58:17;28.05;;;16.85;;
10751;SDS011;74458;51.060;4.228;2023-12-07T09:00:43;26.98;;;16.92;;
10751;SDS011;74458;51.060;4.228;2023-12-07T09:03:17;31.17;;;18.17;;
10751;SDS011;74458;51.060;4.228;2023-12-07T09:05:43;27.75;;;17.40;;
10751;SDS011;74458;51.060;4.228;2023-12-07T09:08:10;28.30;;;17.12;;
10751;SDS011;74458;51.060;4.228;2023-12-07T09:10:36;26.62;;;18.10;;
10751;SDS011;74458;51.060;4.228;2023-12-07T09:13:02;27.25;;;17.80;;
10751;SDS011;74458;51.060;4.228;2023-12-07T09:15:29;28.50;;;16.12;;
10751;SDS011;74458;51.060;4.228;2023-12-07T09:17:55;31.10;;;16.02;;
10751;SDS011;74458;51.060;4.228;2023-12-07T09:20:22;26.20;;;15.40;;
10751;SDS011;74458;51.060;4.228;2023-12-07T09:22:48;26.52;;;15.32;;
10751;SDS011;74458;51.060;4.228;2023-12-07T09:25:15;26.05;;;16.80;;
10751;SDS011;74458;51.060;4.228;2023-12-07T09:27:41;25.65;;;15.23;;
10751;SDS011;74458;51.060;4.228;2023-12-07T09:30:08;24.42;;;16.30;;
10751;SDS011;74458;51.060;4.228;2023-12-07T09:32:34;25.95;;;16.17;;
10751;SDS011;74458;51.060;4.228;2023-12-07T09:35:00;24.63;;;16.23;;
10751;SDS011;74458;51.060;4.228;2023-12-07T09:37:27;28.83;;;18.33;;
10751;SDS011;74458;51.060;4.228;2023-12-07T09:39:53;24.60;;;16.05;;
10751;SDS011;74458;51.060;4.228;2023-12-07T09:42:20;23.85;;;15.15;;
10751;SDS011;74458;51.060;4.228;2023-12-07T09:44:46;23.38;;;14.00;;
10751;SDS011;74458;51.060;4.228;2023-12-07T09:47:13;24.70;;;15.48;;
10751;SDS011;74458;51.060;4.228;2023-12-07T09:49:39;22.00;;;14.98;;
10751;SDS011;74458;51.060;4.228;2023-12-07T09:52:06;21.85;;;14.10;;
10751;SDS011;74458;51.060;4.228;2023-12-07T09:54:32;32.03;;;16.40;;
10751;SDS011;74458;51.060;4.228;2023-12-07T09:56:58;27.48;;;15.25;;
10751;SDS011;74458;51.060;4.228;2023-12-07T09:59:25;28.23;;;15.48;;
10751;SDS011;74458;51.060;4.228;2023-12-07T10:01:51;24.42;;;15.48;;
10751;SDS011;74458;51.060;4.228;2023-12-07T10:04:19;26.08;;;15.68;;
10751;SDS011;74458;51.060;4.228;2023-12-07T10:06:45;23.62;;;15.13;;
10751;SDS011;74458;51.060;4.228;2023-12-07T10:09:11;26.65;;;15.77;;
10751;SDS011;74458;51.060;4.228;2023-12-07T10:11:38;30.25;;;16.23;;
10751;SDS011;74458;51.060;4.228;2023-12-07T10:14:08;23.38;;;14.82;;
10751;SDS011;74458;51.060;4.228;2023-12-07T10:16:34;21.60;;;15.00;;
10751;SDS011;74458;51.060;4.228;2023-12-07T10:21:33;21.48;;;13.40;;
10751;SDS011;74458;51.060;4.228;2023-12-07T10:23:59;23.45;;;13.45;;
10751;SDS011;74458;51.060;4.228;2023-12-07T10:26:26;20.15;;;13.05;;
10751;SDS011;74458;51.060;4.228;2023-12-07T10:28:52;19.42;;;12.93;;
10751;SDS011;74458;51.060;4.228;2023-12-07T10:31:19;20.95;;;13.00;;
10751;SDS011;74458;51.060;4.228;2023-12-07T10:33:47;18.70;;;12.88;;
10751;SDS011;74458;51.060;4.228;2023-12-07T10:36:13;20.55;;;13.18;;
10751;SDS011;74458;51.060;4.228;2023-12-07T10:38:40;23.08;;;13.48;;
10751;SDS011;74458;51.060;4.228;2023-12-07T10:41:09;22.92;;;12.73;;
10751;SDS011;74458;51.060;4.228;2023-12-07T10:43:36;18.52;;;13.40;;
10751;SDS011;74458;51.060;4.228;2023-12-07T10:46:02;17.60;;;12.63;;
10751;SDS011;74458;51.060;4.228;2023-12-07T10:48:30;21.60;;;12.23;;
10751;SDS011;74458;51.060;4.228;2023-12-07T10:50:55;20.52;;;12.02;;
10751;SDS011;74458;51.060;4.228;2023-12-07T10:53:23;22.95;;;11.85;;
10751;SDS011;74458;51.060;4.228;2023-12-07T10:55:52;15.30;;;10.93;;
10751;SDS011;74458;51.060;4.228;2023-12-07T10:58:14;14.55;;;11.43;;
10751;SDS011;74458;51.060;4.228;2023-12-07T11:00:42;18.62;;;12.25;;
10751;SDS011;74458;51.060;4.228;2023-12-07T11:03:20;21.37;;;11.52;;
10751;SDS011;74458;51.060;4.228;2023-12-07T11:05:47;13.32;;;10.45;;
10751;SDS011;74458;51.060;4.228;2023-12-07T11:08:33;16.35;;;11.25;;
10751;SDS011;74458;51.060;4.228;2023-12-07T11:10:59;14.63;;;10.85;;
10751;SDS011;74458;51.060;4.228;2023-12-07T11:13:25;14.75;;;11.50;;
10751;SDS011;74458;51.060;4.228;2023-12-07T11:15:50;14.87;;;10.52;;
10751;SDS011;74458;51.060;4.228;2023-12-07T11:18:16;13.75;;;11.38;;
10751;SDS011;74458;51.060;4.228;2023-12-07T11:20:44;15.05;;;11.60;;
10751;SDS011;74458;51.060;4.228;2023-12-07T11:23:10;19.60;;;12.60;;
10751;SDS011;74458;51.060;4.228;2023-12-07T11:25:37;17.05;;;11.43;;
10751;SDS011;74458;51.060;4.228;2023-12-07T11:28:04;13.50;;;10.98;;
10751;SDS011;74458;51.060;4.228;2023-12-07T11:30:33;17.58;;;10.02;;
10751;SDS011;74458;51.060;4.228;2023-12-07T11:32:56;12.00;;;9.35;;
10751;SDS011;74458;51.060;4.228;2023-12-07T11:35:23;14.25;;;9.35;;
10751;SDS011;74458;51.060;4.228;2023-12-07T11:40:21;14.90;;;10.25;;
10751;SDS011;74458;51.060;4.228;2023-12-07T11:42:48;16.80;;;9.13;;
10751;SDS011;74458;51.060;4.228;2023-12-07T11:45:14;14.27;;;9.27;;
10751;SDS011;74458;51.060;4.228;2023-12-07T11:47:41;11.75;;;7.65;;
10751;SDS011;74458;51.060;4.228;2023-12-07T11:50:07;12.23;;;8.75;;
10751;SDS011;74458;51.060;4.228;2023-12-07T11:52:34;16.45;;;8.43;;
10751;SDS011;74458;51.060;4.228;2023-12-07T11:55:00;14.52;;;8.82;;
10751;SDS011;74458;51.060;4.228;2023-12-07T11:57:27;12.35;;;7.75;;
10751;SDS011;74458;51.060;4.228;2023-12-07T11:59:53;16.02;;;10.05;;
10751;SDS011;74458;51.060;4.228;2023-12-07T12:02:19;11.30;;;8.50;;
10751;SDS011;74458;51.060;4.228;2023-12-07T12:04:53;17.00;;;9.93;;
10751;SDS011;74458;51.060;4.228;2023-12-07T12:07:19;11.80;;;8.32;;
10751;SDS011;74458;51.060;4.228;2023-12-07T12:09:46;14.93;;;8.40;;
10751;SDS011;74458;51.060;4.228;2023-12-07T12:12:12;13.98;;;7.90;;
10751;SDS011;74458;51.060;4.228;2023-12-07T12:14:39;12.65;;;8.65;;
10751;SDS011;74458;51.060;4.228;2023-12-07T12:17:05;14.45;;;8.60;;
10751;SDS011;74458;51.060;4.228;2023-12-07T12:19:32;12.98;;;9.27;;
10751;SDS011;74458;51.060;4.228;2023-12-07T12:21:59;12.63;;;9.30;;
10751;SDS011;74458;51.060;4.228;2023-12-07T12:24:24;11.00;;;7.90;;
10751;SDS011;74458;51.060;4.228;2023-12-07T12:26:51;14.55;;;8.93;;
10751;SDS011;74458;51.060;4.228;2023-12-07T12:29:17;13.25;;;9.13;;
10751;SDS011;74458;51.060;4.228;2023-12-07T12:31:44;12.80;;;8.68;;
10751;SDS011;74458;51.060;4.228;2023-12-07T12:34:23;11.07;;;7.50;;
10751;SDS011;74458;51.060;4.228;2023-12-07T12:36:49;11.25;;;8.18;;
10751;SDS011;74458;51.060;4.228;2023-12-07T12:39:16;11.48;;;8.27;;
10751;SDS011;74458;51.060;4.228;2023-12-07T12:41:54;10.52;;;7.75;;
10751;SDS011;74458;51.060;4.228;2023-12-07T12:44:22;17.62;;;8.75;;
10751;SDS011;74458;51.060;4.228;2023-12-07T12:46:54;10.25;;;7.53;;
10751;SDS011;74458;51.060;4.228;2023-12-07T12:49:21;9.40;;;6.80;;
10751;SDS011;74458;51.060;4.228;2023-12-07T12:52:00;10.98;;;9.00;;
10751;SDS011;74458;51.060;4.228;2023-12-07T12:54:36;10.45;;;7.57;;
10751;SDS011;74458;51.060;4.228;2023-12-07T12:57:05;11.48;;;8.38;;
10751;SDS011;74458;51.060;4.228;2023-12-07T12:59:37;11.70;;;8.10;;
10751;SDS011;74458;51.060;4.228;2023-12-07T13:02:03;13.27;;;7.87;;
10751;SDS011;74458;51.060;4.228;2023-12-07T13:04:30;11.77;;;6.87;;
10751;SDS011;74458;51.060;4.228;2023-12-07T13:06:56;14.80;;;7.18;;
10751;SDS011;74458;51.060;4.228;2023-12-07T13:09:23;12.63;;;7.75;;
10751;SDS011;74458;51.060;4.228;2023-12-07T13:11:49;9.73;;;7.45;;
10751;SDS011;74458;51.060;4.228;2023-12-07T13:14:15;13.13;;;7.07;;
10751;SDS011;74458;51.060;4.228;2023-12-07T13:16:42;11.90;;;7.30;;
10751;SDS011;74458;51.060;4.228;2023-12-07T13:19:16;9.82;;;7.05;;
10751;SDS011;74458;51.060;4.228;2023-12-07T13:21:42;8.38;;;6.78;;
10751;SDS011;74458;51.060;4.228;2023-12-07T13:24:08;10.00;;;6.95;;
10751;SDS011;74458;51.060;4.228;2023-12-07T13:26:38;11.48;;;7.78;;
10751;SDS011;74458;51.060;4.228;2023-12-07T13:29:04;16.80;;;8.30;;
10751;SDS011;74458;51.060;4.228;2023-12-07T13:31:31;12.05;;;7.50;;
10751;SDS011;74458;51.060;4.228;2023-12-07T13:33:57;12.80;;;7.85;;
10751;SDS011;74458;51.060;4.228;2023-12-07T13:36:23;11.25;;;7.93;;
10751;SDS011;74458;51.060;4.228;2023-12-07T13:38:50;10.23;;;6.93;;
10751;SDS011;74458;51.060;4.228;2023-12-07T13:41:16;10.65;;;6.95;;
10751;SDS011;74458;51.060;4.228;2023-12-07T13:43:43;11.25;;;7.20;;
10751;SDS011;74458;51.060;4.228;2023-12-07T13:46:09;11.68;;;6.80;;
10751;SDS011;74458;51.060;4.228;2023-12-07T13:48:36;9.57;;;7.18;;
10751;SDS011;74458;51.060;4.228;2023-12-07T13:51:02;10.18;;;6.80;;
10751;SDS011;74458;51.060;4.228;2023-12-07T13:53:28;12.20;;;7.45;;
10751;SDS011;74458;51.060;4.228;2023-12-07T13:55:58;10.57;;;7.30;;
10751;SDS011;74458;51.060;4.228;2023-12-07T13:58:24;10.43;;;7.03;;
10751;SDS011;74458;51.060;4.228;2023-12-07T14:00:51;9.63;;;7.12;;
10751;SDS011;74458;51.060;4.228;2023-12-07T14:03:17;10.18;;;6.07;;
10751;SDS011;74458;51.060;4.228;2023-12-07T14:05:47;9.73;;;6.22;;
10751;SDS011;74458;51.060;4.228;2023-12-07T14:08:27;9.93;;;6.72;;
10751;SDS011;74458;51.060;4.228;2023-12-07T14:10:53;9.18;;;6.55;;
10751;SDS011;74458;51.060;4.228;2023-12-07T14:13:22;10.00;;;6.85;;
10751;SDS011;74458;51.060;4.228;2023-12-07T14:15:49;26.20;;;6.55;;
10751;SDS011;74458;51.060;4.228;2023-12-07T14:18:15;13.30;;;7.07;;
10751;SDS011;74458;51.060;4.228;2023-12-07T14:20:45;10.93;;;7.00;;
10751;SDS011;74458;51.060;4.228;2023-12-07T14:23:11;7.50;;;5.70;;
10751;SDS011;74458;51.060;4.228;2023-12-07T14:25:38;9.00;;;7.03;;